createdAt,value
2022-08-09T00:02:06.746Z,12.50
2022-08-09T00:06:18.144Z,12.00
2022-08-09T00:08:39.059Z,10.30
2022-08-09T00:11:58.690Z,13.30
2022-08-09T00:15:14.740Z,12.60
2022-08-09T00:18:21.110Z,11.00
2022-08-09T00:21:28.052Z,12.80
2022-08-09T00:24:35.015Z,10.70
2022-08-09T00:27:44.176Z,10.70
2022-08-09T00:30:56.767Z,12.00
2022-08-09T00:34:03.085Z,10.50
2022-08-09T00:37:09.010Z,10.20
2022-08-09T00:40:17.393Z,11.70
2022-08-09T00:44:10.467Z,11.00
2022-08-09T00:46:56.882Z,10.40
2022-08-09T00:50:14.647Z,11.70
2022-08-09T00:53:24.006Z,10.80
2022-08-09T00:56:30.953Z,10.30
2022-08-09T00:59:41.102Z,12.00
2022-08-09T01:02:51.181Z,11.50
2022-08-09T01:06:17.576Z,10.50
2022-08-09T01:09:36.978Z,12.50
2022-08-09T01:12:52.922Z,11.70
2022-08-09T01:16:00.842Z,10.90
2022-08-09T01:19:42.701Z,10.70
2022-08-09T01:23:04.770Z,10.50
2022-08-09T01:26:55.959Z,11.50
2022-08-09T01:30:05.582Z,10.60
2022-08-09T01:33:15.823Z,12.80
2022-08-09T01:36:27.314Z,10.80
2022-08-09T01:39:36.722Z,9.90
2022-08-09T01:42:43.747Z,11.00
2022-08-09T01:45:51.429Z,10.70
2022-08-09T01:49:10.392Z,10.80
2022-08-09T01:52:21.088Z,10.60
2022-08-09T01:55:31.257Z,10.60
2022-08-09T01:58:40.226Z,12.70
2022-08-09T02:01:59.382Z,10.70
2022-08-09T02:05:15.309Z,10.40
2022-08-09T02:08:39.588Z,10.40
2022-08-09T02:11:50.191Z,10.50
2022-08-09T02:14:57.958Z,12.60
2022-08-09T02:18:10.521Z,8.60
2022-08-09T02:21:22.133Z,9.90
2022-08-09T02:24:35.602Z,13.40
2022-08-09T02:28:00.199Z,11.00
2022-08-09T02:31:12.575Z,10.90
2022-08-09T02:34:25.888Z,11.10
2022-08-09T02:37:51.279Z,11.30
2022-08-09T02:41:03.409Z,9.50
2022-08-09T02:44:25.562Z,10.10
2022-08-09T02:47:57.362Z,9.80
2022-08-09T02:51:05.638Z,9.70
2022-08-09T02:54:15.030Z,12.90
2022-08-09T02:57:23.963Z,10.00
2022-08-09T03:00:32.372Z,10.40
2022-08-09T03:04:17.475Z,12.40
2022-08-09T03:07:14.032Z,11.00
2022-08-09T03:10:22.053Z,10.50
2022-08-09T03:13:43.984Z,13.70
2022-08-09T03:16:58.248Z,10.20
2022-08-09T03:20:11.601Z,11.80
2022-08-09T03:23:24.688Z,11.40
2022-08-09T03:26:32.448Z,11.10
2022-08-09T03:29:57.373Z,11.50
2022-08-09T03:33:17.877Z,9.30
2022-08-09T03:36:27.352Z,12.60
2022-08-09T03:39:37.808Z,11.00
2022-08-09T03:42:44.599Z,9.80
2022-08-09T03:46:05.019Z,9.80
2022-08-09T03:49:19.224Z,9.90
2022-08-09T03:52:31.093Z,12.60
2022-08-09T03:55:40.828Z,10.10
2022-08-09T03:58:50.136Z,9.30
2022-08-09T04:01:59.139Z,9.70
2022-08-09T04:05:26.559Z,11.60
2022-08-09T04:08:33.160Z,11.70
2022-08-09T04:12:08.704Z,13.10
2022-08-09T04:15:42.552Z,10.50
2022-08-09T04:18:45.866Z,10.40
2022-08-09T04:21:52.550Z,12.30
2022-08-09T04:24:59.010Z,9.90
2022-08-09T04:28:05.482Z,10.70
2022-08-09T04:31:13.015Z,11.20
2022-08-09T04:34:30.593Z,9.60
2022-08-09T04:37:46.055Z,11.30
2022-08-09T04:40:56.368Z,10.60
2022-08-09T04:44:05.680Z,12.20
2022-08-09T04:47:12.477Z,12.50
2022-08-09T04:50:20.169Z,10.30
2022-08-09T04:53:26.362Z,9.10
2022-08-09T04:56:32.486Z,9.30
2022-08-09T04:59:40.923Z,11.00
2022-08-09T05:02:52.477Z,10.50
2022-08-09T05:06:06.526Z,10.70
2022-08-09T05:09:13.427Z,12.60
2022-08-09T05:12:22.626Z,10.00
2022-08-09T05:15:38.765Z,12.20
2022-08-09T05:18:57.344Z,11.90
2022-08-09T05:22:05.784Z,9.80
2022-08-09T05:25:32.709Z,10.40
2022-08-09T05:28:38.846Z,12.80
2022-08-09T05:31:46.587Z,12.00
2022-08-09T05:34:55.524Z,12.10
2022-08-09T05:38:02.003Z,11.90
2022-08-09T05:41:12.803Z,12.20
2022-08-09T05:44:22.075Z,11.10
2022-08-09T05:47:35.186Z,12.60
2022-08-09T05:51:12.098Z,10.20
2022-08-09T05:54:18.074Z,11.90
2022-08-09T05:57:25.012Z,10.20
2022-08-09T06:00:50.682Z,11.50
2022-08-09T06:03:58.926Z,9.50
2022-08-09T06:07:05.770Z,10.60
2022-08-09T06:10:18.114Z,10.40
2022-08-09T06:13:28.396Z,10.60
2022-08-09T06:16:40.435Z,8.90
2022-08-09T06:19:47.523Z,9.90
2022-08-09T06:22:55.543Z,12.70
2022-08-09T06:26:02.223Z,9.10
2022-08-09T06:29:09.489Z,10.10
2022-08-09T06:32:59.429Z,10.60
2022-08-09T06:35:56.902Z,10.10
2022-08-09T06:39:09.290Z,9.90
2022-08-09T06:42:19.847Z,11.10
2022-08-09T06:46:04.720Z,11.30
2022-08-09T07:02:13.408Z,9.00
2022-08-09T07:05:22.373Z,12.30
2022-08-09T07:08:27.865Z,11.70
2022-08-09T07:11:51.971Z,12.90
2022-08-09T07:14:59.099Z,9.10
2022-08-09T07:21:30.975Z,9.20
2022-08-09T07:24:40.766Z,9.60
2022-08-09T07:27:55.470Z,13.00
2022-08-09T07:31:01.503Z,11.80
2022-08-09T07:34:08.302Z,9.90
2022-08-09T07:37:25.769Z,11.30
2022-08-09T07:40:54.179Z,11.40
2022-08-09T07:47:02.178Z,9.30
2022-08-09T07:50:09.268Z,13.60
2022-08-09T07:53:15.065Z,11.80
2022-08-09T08:00:02.727Z,14.10
2022-08-09T08:03:09.819Z,9.40
2022-08-09T08:06:21.175Z,16.70
2022-08-09T08:09:35.249Z,10.00
2022-08-09T08:12:50.003Z,9.30
2022-08-09T08:15:55.519Z,11.40
2022-08-09T08:19:04.824Z,16.60
2022-08-09T08:22:10.329Z,10.40
2022-08-09T08:25:15.965Z,9.90
2022-08-09T08:28:32.001Z,10.10
2022-08-09T08:31:56.464Z,8.00
2022-08-09T08:38:11.592Z,10.30
2022-08-09T08:41:17.460Z,11.70
2022-08-09T08:44:28.766Z,10.60
2022-08-09T08:47:38.551Z,10.90
2022-08-09T08:50:51.956Z,10.60
2022-08-09T08:54:03.881Z,10.30
2022-08-09T08:57:12.016Z,9.30
2022-08-09T09:00:27.361Z,9.20
2022-08-09T09:03:37.910Z,11.40
2022-08-09T09:06:46.344Z,9.00
2022-08-09T09:10:01.919Z,8.10
2022-08-09T09:13:11.584Z,8.60
2022-08-09T09:16:30.369Z,7.80
2022-08-09T09:19:41.131Z,10.50
2022-08-09T09:23:01.470Z,8.70
2022-08-09T09:26:12.242Z,8.20
2022-08-09T09:29:40.966Z,10.40
2022-08-09T09:33:15.863Z,8.80
2022-08-09T09:36:23.072Z,8.90
2022-08-09T09:39:55.342Z,6.80
2022-08-09T09:42:59.266Z,6.20
2022-08-09T09:50:13.313Z,8.50
2022-08-09T09:52:58.505Z,7.80
2022-08-09T09:56:05.791Z,7.30
2022-08-09T09:59:13.058Z,9.20
2022-08-09T10:02:23.301Z,6.00
2022-08-09T10:06:03.598Z,6.80
2022-08-09T10:09:21.897Z,5.70
2022-08-09T10:12:31.641Z,6.60
2022-08-09T10:16:08.952Z,8.80
2022-08-09T10:19:15.728Z,8.30
2022-08-09T10:22:33.080Z,7.30
2022-08-09T10:26:06.219Z,6.70
2022-08-09T10:29:22.705Z,7.30
2022-08-09T10:32:42.532Z,8.00
2022-08-09T10:35:49.589Z,6.00
2022-08-09T10:38:59.791Z,6.10
2022-08-09T10:42:06.609Z,9.40
2022-08-09T10:45:16.504Z,8.00
2022-08-09T10:48:30.045Z,6.20
2022-08-09T10:51:56.324Z,6.50
2022-08-09T10:55:22.787Z,7.10
2022-08-09T11:15:50.919Z,5.50
2022-08-09T11:19:01.498Z,6.60
2022-08-09T11:22:18.837Z,6.90
2022-08-09T11:25:54.738Z,8.60
2022-08-09T11:29:01.139Z,9.10
2022-08-09T11:32:08.282Z,9.70
2022-08-09T11:35:18.873Z,8.10
2022-08-09T11:38:35.063Z,7.90
2022-08-09T11:41:48.781Z,8.50
2022-08-09T11:44:57.287Z,9.30
2022-08-09T11:48:26.154Z,7.60
2022-08-09T11:52:59.188Z,7.80
2022-08-09T11:55:53.660Z,8.90
2022-08-09T11:59:05.642Z,6.80
2022-08-09T12:02:16.904Z,9.90
2022-08-09T12:05:34.468Z,10.80
2022-08-09T12:08:51.018Z,9.80
2022-08-09T12:12:04.091Z,7.50
2022-08-09T12:15:50.323Z,8.80
2022-08-09T12:18:53.809Z,4.90
2022-08-09T12:22:03.206Z,4.60
2022-08-09T12:25:17.118Z,7.60
2022-08-09T12:29:12.311Z,5.70
2022-08-09T12:32:03.391Z,7.90
2022-08-09T12:35:13.446Z,5.10
2022-08-09T12:38:38.133Z,4.50
2022-08-09T12:41:44.861Z,6.50
2022-08-09T12:44:52.342Z,4.70
2022-08-09T12:48:01.071Z,7.30
2022-08-09T12:51:10.719Z,7.70
2022-08-09T12:54:17.960Z,6.10
2022-08-09T12:57:41.802Z,7.60
2022-08-09T13:00:48.723Z,7.70
2022-08-09T13:04:03.364Z,9.50
2022-08-09T13:07:19.899Z,8.30
2022-08-09T13:10:44.534Z,5.10
2022-08-09T13:14:42.348Z,5.50
2022-08-09T13:17:58.682Z,7.40
2022-08-09T13:22:33.434Z,5.80
2022-08-09T13:24:53.329Z,7.30
2022-08-09T13:32:16.568Z,7.20
2022-08-09T13:34:42.294Z,9.10
2022-08-09T13:37:51.367Z,5.70
2022-08-09T13:41:46.954Z,5.90
2022-08-09T13:44:29.219Z,9.30
2022-08-09T13:47:49.564Z,7.80
2022-08-09T13:50:58.920Z,7.70
2022-08-09T13:54:05.218Z,6.00
2022-08-09T13:57:14.490Z,5.90
2022-08-09T14:00:44.822Z,6.00
2022-08-09T14:04:02.792Z,6.60
2022-08-09T14:07:11.500Z,3.50
2022-08-09T14:10:37.748Z,8.50
2022-08-09T14:14:24.822Z,5.90
2022-08-09T14:17:12.156Z,6.30
2022-08-09T14:20:18.905Z,5.50
2022-08-09T14:23:53.748Z,6.80
2022-08-09T14:26:53.517Z,7.80
2022-08-09T14:30:34.503Z,6.70
2022-08-09T14:33:26.338Z,5.70
2022-08-09T14:36:35.320Z,4.20
2022-08-09T14:39:48.558Z,5.40
2022-08-09T14:42:55.020Z,5.80
2022-08-09T14:46:54.552Z,5.20
2022-08-09T14:49:34.673Z,5.50
2022-08-09T14:52:55.421Z,6.00
2022-08-09T14:56:01.553Z,7.10
2022-08-09T14:59:09.039Z,7.90
2022-08-09T15:02:20.700Z,4.90
2022-08-09T15:05:27.274Z,5.60
2022-08-09T15:08:35.742Z,6.20
2022-08-09T15:11:48.657Z,7.40
2022-08-09T15:14:56.035Z,5.60
2022-08-09T15:18:02.276Z,5.50
2022-08-09T15:22:01.454Z,9.40
2022-08-09T15:24:35.023Z,7.40
2022-08-09T15:27:47.998Z,5.60
2022-08-09T15:31:08.644Z,6.60
2022-08-09T15:34:33.408Z,5.00
2022-08-09T15:37:57.133Z,6.90
2022-08-09T15:41:09.777Z,5.60
2022-08-09T15:44:16.190Z,10.60
2022-08-09T15:47:31.888Z,6.10
2022-08-09T15:50:52.428Z,6.80
2022-08-09T15:54:05.973Z,5.00
2022-08-09T15:57:14.152Z,7.30
2022-08-09T16:00:26.793Z,5.70
2022-08-09T16:03:37.951Z,6.30
2022-08-09T16:06:50.631Z,6.80
2022-08-09T16:10:03.976Z,4.90
2022-08-09T16:13:21.067Z,4.60
2022-08-09T16:16:41.758Z,8.00
2022-08-09T16:20:04.829Z,7.20
2022-08-09T16:23:15.145Z,9.10
2022-08-09T16:26:33.552Z,6.80
2022-08-09T16:29:50.540Z,7.90
2022-08-09T16:33:16.122Z,9.70
2022-08-09T16:36:22.634Z,9.00
2022-08-09T16:39:31.747Z,6.80
2022-08-09T16:42:54.551Z,6.90
2022-08-09T16:46:01.895Z,9.20
2022-08-09T16:49:17.731Z,9.90
2022-08-09T16:52:35.835Z,6.90
2022-08-09T16:56:01.407Z,9.30
2022-08-09T16:59:10.607Z,7.20
2022-08-09T17:02:17.791Z,6.70
2022-08-09T17:06:06.974Z,9.30
2022-08-09T17:08:58.926Z,8.70
2022-08-09T17:12:11.666Z,9.00
2022-08-09T17:15:31.082Z,10.20
2022-08-09T17:18:45.362Z,5.90
2022-08-09T17:21:54.448Z,8.40
2022-08-09T17:25:03.754Z,9.30
2022-08-09T17:28:10.983Z,11.40
2022-08-09T17:31:20.047Z,10.20
2022-08-09T17:35:00.827Z,8.40
2022-08-09T17:38:12.992Z,10.50
2022-08-09T17:41:21.485Z,11.60
2022-08-09T17:44:47.946Z,11.00
2022-08-09T17:48:02.696Z,11.60
2022-08-09T17:51:18.041Z,12.50
2022-08-09T17:54:29.592Z,12.60
2022-08-09T17:58:03.730Z,10.10
2022-08-09T18:01:02.252Z,8.80
2022-08-09T18:04:08.618Z,10.00
2022-08-09T18:07:22.979Z,8.70
2022-08-09T18:10:31.134Z,10.80
2022-08-09T18:13:56.514Z,10.30
2022-08-09T18:17:04.958Z,10.20
2022-08-09T18:20:54.060Z,10.40
2022-08-09T18:24:09.674Z,12.10
2022-08-09T18:27:06.849Z,11.10
2022-08-09T18:30:41.576Z,9.30
2022-08-09T18:33:44.278Z,10.10
2022-08-09T18:36:59.670Z,12.10
2022-08-09T18:40:07.218Z,11.00
2022-08-09T18:43:13.811Z,10.20
2022-08-09T18:46:46.759Z,9.00
2022-08-09T18:49:48.601Z,10.70
2022-08-09T18:53:00.767Z,11.60
2022-08-09T18:56:10.229Z,11.30
2022-08-09T18:59:16.614Z,9.80
2022-08-09T19:02:31.802Z,11.40
2022-08-09T19:06:02.270Z,8.50
2022-08-09T19:09:07.860Z,8.10
2022-08-09T19:12:21.832Z,8.30
2022-08-09T19:15:28.703Z,8.50
2022-08-09T19:18:38.690Z,8.80
2022-08-09T19:22:04.913Z,9.10
2022-08-09T19:25:41.754Z,10.90
2022-08-09T19:28:42.684Z,9.60
2022-08-09T19:31:59.863Z,11.80
2022-08-09T19:35:07.435Z,10.30
2022-08-09T19:38:13.658Z,10.60
2022-08-09T19:41:33.391Z,14.70
2022-08-09T19:44:42.142Z,13.10
2022-08-09T19:47:48.279Z,10.80
2022-08-09T19:50:54.544Z,12.50
2022-08-09T19:54:01.242Z,10.90
2022-08-09T19:57:08.513Z,11.20
2022-08-09T20:00:18.015Z,11.30
2022-08-09T20:04:26.567Z,13.70
2022-08-09T20:06:50.279Z,13.20
2022-08-09T20:09:56.434Z,12.50
2022-08-09T20:13:03.094Z,11.90
2022-08-09T20:16:34.006Z,12.00
2022-08-09T20:19:47.596Z,10.40
2022-08-09T20:22:56.329Z,12.90
2022-08-09T20:26:03.080Z,11.30
2022-08-09T20:29:19.054Z,9.60
2022-08-09T20:32:30.750Z,9.20
2022-08-09T20:35:40.200Z,8.00
2022-08-09T20:39:28.695Z,7.60
2022-08-09T20:42:17.820Z,9.00
2022-08-09T20:45:59.836Z,9.40
2022-08-09T20:48:51.615Z,8.00
2022-08-09T20:51:57.821Z,10.00
2022-08-09T20:55:09.075Z,9.00
2022-08-09T20:58:20.211Z,8.70
2022-08-09T21:01:34.274Z,9.20
2022-08-09T21:05:56.670Z,8.80
2022-08-09T21:08:20.287Z,7.60
2022-08-09T21:14:57.412Z,9.20
2022-08-09T21:18:22.453Z,9.70
2022-08-09T21:21:46.365Z,9.80
2022-08-09T21:25:13.622Z,9.80
2022-08-09T21:28:20.758Z,8.60
2022-08-09T21:31:49.364Z,8.40
2022-08-09T21:34:56.363Z,9.30
2022-08-09T21:38:03.026Z,9.70
2022-08-09T21:41:09.219Z,8.40
2022-08-09T21:44:33.307Z,12.00
2022-08-09T21:47:42.463Z,8.50
2022-08-09T21:50:51.330Z,8.70
2022-08-09T21:53:58.135Z,9.40
2022-08-09T21:57:05.833Z,10.40
2022-08-09T22:00:15.703Z,10.80
2022-08-09T22:03:25.489Z,10.80
2022-08-09T22:06:32.359Z,8.90
2022-08-09T22:09:38.531Z,10.20
2022-08-09T22:12:50.334Z,11.40
2022-08-09T22:15:56.406Z,10.90
2022-08-09T22:22:07.485Z,9.60
2022-08-09T22:26:08.247Z,9.30
2022-08-09T22:28:47.364Z,10.50
2022-08-09T22:32:00.507Z,9.40
2022-08-09T22:36:02.260Z,10.70
2022-08-09T22:38:33.964Z,10.90
2022-08-09T22:41:43.702Z,9.00
2022-08-09T22:48:05.088Z,7.80
2022-08-09T22:48:35.919Z,12.30
2022-08-09T22:51:43.510Z,11.00
2022-08-09T22:54:56.249Z,10.30
2022-08-09T22:58:02.361Z,11.20
2022-08-09T23:01:11.591Z,11.40
2022-08-09T23:04:19.306Z,9.00
2022-08-09T23:08:27.353Z,9.20
2022-08-09T23:11:11.154Z,9.70
2022-08-09T23:14:17.735Z,9.30
2022-08-09T23:17:43.528Z,8.60
2022-08-09T23:24:05.276Z,9.00
2022-08-09T23:27:13.283Z,8.60
2022-08-09T23:30:20.068Z,9.30
2022-08-09T23:33:26.629Z,8.80
2022-08-09T23:36:32.816Z,9.00
2022-08-09T23:39:39.064Z,9.50
2022-08-09T23:42:45.214Z,10.60
2022-08-09T23:48:55.825Z,12.10
2022-08-09T23:52:01.945Z,9.90
2022-08-09T23:58:26.102Z,9.70
